createdAt,value
2023-04-24T00:01:05.428Z,95072.84
2023-04-24T00:03:34.501Z,95072.03
2023-04-24T00:06:08.071Z,95067.63
2023-04-24T00:08:37.246Z,95069.75
2023-04-24T00:11:06.643Z,95069.38
2023-04-24T00:13:37.019Z,95062.75
2023-04-24T00:16:06.628Z,95064.09
2023-04-24T00:18:35.406Z,95070.28
2023-04-24T00:21:04.134Z,95062.91
2023-04-24T00:23:33.204Z,95068.94
2023-04-24T00:26:01.990Z,95055.34
2023-04-24T00:28:30.487Z,95050.09
2023-04-24T00:31:00.543Z,95066.09
2023-04-24T00:33:29.399Z,95056.69
2023-04-24T00:35:58.315Z,95057.34
2023-04-24T00:38:27.214Z,95058.97
2023-04-24T00:40:56.477Z,95063.81
2023-04-24T00:43:25.536Z,95070.03
2023-04-24T00:45:54.397Z,95063.81
2023-04-24T00:48:26.271Z,95054.56
2023-04-24T00:50:55.372Z,95046.22
2023-04-24T00:53:24.311Z,95048.63
2023-04-24T00:55:53.281Z,95051.03
2023-04-24T00:58:22.248Z,95047.53
2023-04-24T01:00:54.356Z,95046.75
2023-04-24T01:03:25.100Z,95045.66
2023-04-24T01:05:53.639Z,95040.81
2023-04-24T01:08:23.954Z,95043.66
2023-04-24T01:10:55.578Z,95034.63
2023-04-24T01:13:24.355Z,95039.34
2023-04-24T01:15:53.397Z,95040.31
2023-04-24T01:18:23.099Z,95038.66
2023-04-24T01:20:53.864Z,95041.91
2023-04-24T01:23:24.071Z,95040.97
2023-04-24T01:25:52.993Z,95039.50
2023-04-24T01:28:21.897Z,95029.41
2023-04-24T01:30:50.633Z,95036.94
2023-04-24T01:33:23.857Z,95031.81
2023-04-24T01:35:52.825Z,95033.56
2023-04-24T01:38:21.621Z,95032.38
2023-04-24T01:40:52.227Z,95031.03
2023-04-24T01:43:21.494Z,95033.56
2023-04-24T01:45:49.929Z,95039.59
2023-04-24T01:48:18.714Z,95037.88
2023-04-24T01:50:47.872Z,95048.09
2023-04-24T01:53:16.536Z,95036.41
2023-04-24T01:55:45.355Z,95036.00
2023-04-24T01:58:15.886Z,95035.72
2023-04-24T02:00:44.476Z,95036.53
2023-04-24T02:03:13.177Z,95023.91
2023-04-24T02:05:41.700Z,95025.09
2023-04-24T02:08:10.126Z,95020.00
2023-04-24T02:10:38.872Z,95018.13
2023-04-24T02:13:07.870Z,95019.06
2023-04-24T02:15:38.143Z,95026.84
2023-04-24T02:18:08.015Z,95016.13
2023-04-24T02:20:37.587Z,95017.19
2023-04-24T02:23:06.327Z,95012.06
2023-04-24T02:25:35.986Z,95009.38
2023-04-24T02:28:04.663Z,95014.22
2023-04-24T02:30:33.457Z,95006.03
2023-04-24T02:33:04.671Z,95004.13
2023-04-24T02:35:33.256Z,95009.38
2023-04-24T02:38:02.100Z,95001.56
2023-04-24T02:40:30.590Z,95002.38
2023-04-24T02:42:59.416Z,95001.47
2023-04-24T02:45:28.043Z,95001.56
2023-04-24T02:47:56.851Z,95006.97
2023-04-24T02:50:26.990Z,94989.75
2023-04-24T02:52:55.960Z,94993.50
2023-04-24T02:55:24.512Z,94993.78
2023-04-24T02:57:53.386Z,94987.06
2023-04-24T03:00:22.251Z,94984.94
2023-04-24T03:02:51.230Z,94990.69
2023-04-24T03:05:19.850Z,94995.16
2023-04-24T03:07:50.008Z,94991.91
2023-04-24T03:10:18.869Z,94990.97
2023-04-24T03:12:47.329Z,95000.50
2023-04-24T03:15:17.683Z,94996.19
2023-04-24T03:17:46.854Z,94994.47
2023-04-24T03:20:15.876Z,94992.44
2023-04-24T03:22:44.901Z,94997.28
2023-04-24T03:25:15.201Z,94990.56
2023-04-24T03:27:44.190Z,94985.97
2023-04-24T03:30:13.718Z,94996.47
2023-04-24T03:32:42.698Z,95006.53
2023-04-24T03:35:12.329Z,95006.41
2023-04-24T03:37:41.319Z,95007.75
2023-04-24T03:40:11.360Z,95007.47
2023-04-24T03:42:41.490Z,95000.63
2023-04-24T03:45:11.448Z,95004.53
2023-04-24T03:47:42.960Z,95009.66
2023-04-24T03:50:13.161Z,95012.88
2023-04-24T03:52:41.930Z,95023.59
2023-04-24T03:55:14.171Z,95019.44
2023-04-24T03:57:44.441Z,95033.56
2023-04-24T04:00:14.395Z,95026.44
2023-04-24T04:02:43.671Z,95024.44
2023-04-24T04:05:12.628Z,95022.53
2023-04-24T04:07:41.861Z,95025.78
2023-04-24T04:10:11.124Z,95025.63
2023-04-24T04:12:39.698Z,95025.78
2023-04-24T04:15:10.383Z,95032.22
2023-04-24T04:17:39.634Z,95031.00
2023-04-24T04:20:11.165Z,95029.78
2023-04-24T04:22:40.568Z,95031.25
2023-04-24T04:25:11.405Z,95028.41
2023-04-24T04:27:40.372Z,95029.38
2023-04-24T04:30:11.575Z,95035.94
2023-04-24T04:32:40.155Z,95036.63
2023-04-24T04:35:09.204Z,95036.34
2023-04-24T04:37:38.320Z,95039.56
2023-04-24T04:40:08.665Z,95024.78
2023-04-24T04:42:41.880Z,95037.91
2023-04-24T04:45:13.050Z,95029.03
2023-04-24T04:47:42.190Z,95031.97
2023-04-24T04:50:12.579Z,94990.06
2023-04-24T04:52:41.506Z,95031.28
2023-04-24T04:55:10.888Z,95040.03
2023-04-24T04:57:39.597Z,95037.84
2023-04-24T05:00:11.605Z,95036.59
2023-04-24T05:02:42.383Z,95036.34
2023-04-24T05:05:11.733Z,95047.88
2023-04-24T05:07:41.666Z,95051.13
2023-04-24T05:10:11.727Z,95056.38
2023-04-24T05:12:40.402Z,95051.94
2023-04-24T05:15:10.235Z,95055.94
2023-04-24T05:17:39.073Z,95067.53
2023-04-24T05:20:11.026Z,95064.53
2023-04-24T05:22:39.636Z,95055.78
2023-04-24T05:25:09.065Z,95066.09
2023-04-24T05:27:37.745Z,95070.66
2023-04-24T05:30:09.551Z,95068.59
2023-04-24T05:32:38.445Z,95075.19
2023-04-24T05:35:09.532Z,95077.47
2023-04-24T05:37:38.201Z,95067.91
2023-04-24T05:40:07.751Z,95073.91
2023-04-24T05:42:36.449Z,95066.75
2023-04-24T05:45:06.294Z,95065.53
2023-04-24T05:47:35.054Z,95071.00
2023-04-24T05:50:04.014Z,95062.22
2023-04-24T05:52:33.992Z,95071.53
2023-04-24T05:55:02.967Z,95071.53
2023-04-24T05:57:31.922Z,95072.06
2023-04-24T06:00:01.224Z,95072.69
2023-04-24T06:02:33.793Z,95074.31
2023-04-24T06:05:03.047Z,95085.09
2023-04-24T06:07:31.782Z,95075.88
2023-04-24T06:10:02.027Z,95047.06
2023-04-24T06:12:30.827Z,95078.06
2023-04-24T06:15:00.072Z,95074.28
2023-04-24T06:17:28.824Z,95069.16
2023-04-24T06:19:57.330Z,95064.84
2023-04-24T06:22:26.174Z,95083.94
2023-04-24T06:24:54.937Z,95078.81
2023-04-24T06:27:25.234Z,95072.44
2023-04-24T06:29:55.782Z,95074.44
2023-04-24T06:32:25.493Z,95065.63
2023-04-24T06:34:54.702Z,95081.59
2023-04-24T06:37:29.740Z,95070.91
2023-04-24T06:39:58.498Z,95078.00
2023-04-24T06:42:28.726Z,95070.66
2023-04-24T06:44:57.831Z,95070.50
2023-04-24T06:47:26.442Z,95075.47
2023-04-24T06:49:56.276Z,95067.66
2023-04-24T06:52:24.956Z,95075.34
2023-04-24T06:54:53.674Z,95065.72
2023-04-24T06:57:22.446Z,95072.03
2023-04-24T06:59:52.787Z,95073.00
2023-04-24T07:02:21.944Z,95075.41
2023-04-24T07:04:51.008Z,95079.72
2023-04-24T07:07:19.929Z,95076.06
2023-04-24T07:09:49.790Z,95076.84
2023-04-24T07:12:21.342Z,95085.66
2023-04-24T07:14:50.331Z,95079.88
2023-04-24T07:17:20.291Z,95077.81
2023-04-24T07:19:49.024Z,95075.75
2023-04-24T07:22:18.165Z,95075.78
2023-04-24T07:24:47.381Z,95086.72
2023-04-24T07:27:16.584Z,95080.34
2023-04-24T07:29:45.969Z,95080.03
2023-04-24T07:32:15.049Z,95082.59
2023-04-24T07:34:45.524Z,95083.84
2023-04-24T07:37:14.152Z,95093.09
2023-04-24T07:39:43.840Z,95092.34
2023-04-24T07:42:13.049Z,95094.03
2023-04-24T07:44:41.878Z,95102.31
2023-04-24T07:47:10.878Z,95090.31
2023-04-24T07:49:39.718Z,95099.56
2023-04-24T07:52:09.969Z,95103.72
2023-04-24T07:54:39.273Z,95108.38
2023-04-24T07:57:09.445Z,95110.72
2023-04-24T07:59:37.860Z,95116.59
2023-04-24T08:02:07.617Z,95111.69
2023-04-24T08:04:36.583Z,95115.63
2023-04-24T08:07:05.535Z,95114.03
2023-04-24T08:09:35.496Z,95120.63
2023-04-24T08:12:04.175Z,95130.91
2023-04-24T08:14:32.774Z,95119.09
2023-04-24T08:17:02.602Z,95116.97
2023-04-24T08:19:31.479Z,95121.41
2023-04-24T08:22:01.992Z,95121.44
2023-04-24T08:24:31.528Z,95129.81
2023-04-24T08:27:02.575Z,95128.25
2023-04-24T08:29:31.493Z,95121.59
2023-04-24T08:32:00.064Z,95123.03
2023-04-24T08:34:28.857Z,95123.84
2023-04-24T08:36:57.264Z,95137.59
2023-04-24T08:39:25.940Z,95134.91
2023-04-24T08:41:55.704Z,95136.66
2023-04-24T08:44:25.629Z,95129.84
2023-04-24T08:46:56.120Z,95141.00
2023-04-24T08:49:27.075Z,95142.78
2023-04-24T08:51:56.276Z,95143.50
2023-04-24T08:54:25.248Z,95146.00
2023-04-24T08:56:56.492Z,95145.38
2023-04-24T08:59:27.157Z,95143.47
2023-04-24T09:01:57.821Z,95145.94
2023-04-24T09:04:27.789Z,95147.47
2023-04-24T09:06:58.657Z,95146.88
2023-04-24T09:09:28.119Z,95144.44
2023-04-24T09:11:57.362Z,95155.38
2023-04-24T09:14:27.787Z,95157.94
2023-04-24T09:16:56.896Z,95158.13
2023-04-24T09:19:25.931Z,95163.69
2023-04-24T09:21:55.815Z,95164.09
2023-04-24T09:24:25.366Z,95158.56
2023-04-24T09:27:00.360Z,95158.59
2023-04-24T09:29:34.155Z,95168.28
2023-04-24T09:32:20.978Z,95165.25
2023-04-24T09:34:50.644Z,95162.28
2023-04-24T09:37:31.383Z,95161.91
2023-04-24T09:40:14.865Z,95155.91
2023-04-24T09:42:46.676Z,95163.34
2023-04-24T09:45:17.359Z,95164.94
2023-04-24T09:47:46.968Z,95168.00
2023-04-24T09:50:17.334Z,95159.97
2023-04-24T09:52:48.433Z,95165.34
2023-04-24T09:55:20.399Z,95169.31
2023-04-24T09:57:57.691Z,95171.22
2023-04-24T10:00:29.846Z,95168.00
2023-04-24T10:03:00.042Z,95165.59
2023-04-24T10:05:38.424Z,95172.75
2023-04-24T10:08:08.976Z,95170.72
2023-04-24T10:10:40.900Z,95171.06
2023-04-24T10:13:10.350Z,95162.25
2023-04-24T10:15:41.872Z,95173.03
2023-04-24T10:18:11.155Z,95169.28
2023-04-24T10:20:41.770Z,95170.84
2023-04-24T10:23:10.842Z,95180.13
2023-04-24T10:25:39.796Z,95175.31
2023-04-24T10:28:11.018Z,95175.69
2023-04-24T10:30:41.769Z,95177.22
2023-04-24T10:33:10.857Z,95177.28
2023-04-24T10:35:43.679Z,95180.69
2023-04-24T10:38:15.322Z,95179.94
2023-04-24T10:40:45.665Z,95174.41
2023-04-24T10:43:19.692Z,95177.69
2023-04-24T10:46:05.806Z,95175.88
2023-04-24T10:48:35.424Z,95175.09
2023-04-24T10:51:04.672Z,95183.69
2023-04-24T10:53:33.497Z,95155.06
2023-04-24T10:56:07.881Z,95175.38
2023-04-24T10:58:41.512Z,95176.81
2023-04-24T11:01:11.562Z,95178.06
2023-04-24T11:03:43.096Z,95174.75
2023-04-24T11:06:16.188Z,95176.09
2023-04-24T11:08:46.572Z,95179.00
2023-04-24T11:11:16.478Z,95172.59
2023-04-24T11:14:07.995Z,95170.00
2023-04-24T11:16:48.870Z,95171.81
2023-04-24T11:19:24.842Z,95174.97
2023-04-24T11:22:00.851Z,95168.19
2023-04-24T11:24:32.010Z,95177.41
2023-04-24T11:27:07.976Z,95177.09
2023-04-24T11:29:44.631Z,95178.06
2023-04-24T11:32:28.701Z,95183.06
2023-04-24T11:34:59.196Z,95170.63
2023-04-24T11:37:30.717Z,95170.50
2023-04-24T11:40:01.343Z,95165.53
2023-04-24T11:42:31.254Z,95177.91
2023-04-24T11:45:01.775Z,95168.75
2023-04-24T11:47:35.086Z,95169.53
2023-04-24T11:50:04.691Z,95171.47
2023-04-24T11:52:34.098Z,95172.72
2023-04-24T11:55:03.149Z,95174.69
2023-04-24T11:57:35.053Z,95173.88
2023-04-24T12:00:05.612Z,95176.44
2023-04-24T12:02:38.216Z,95163.41
2023-04-24T12:05:09.609Z,95172.56
2023-04-24T12:07:44.391Z,95167.44
2023-04-24T12:10:12.966Z,95156.16
2023-04-24T12:12:41.771Z,95162.25
2023-04-24T12:15:11.380Z,95157.03
2023-04-24T12:17:44.604Z,95146.22
2023-04-24T12:20:15.823Z,95146.47
2023-04-24T12:22:49.816Z,95151.25
2023-04-24T12:25:19.703Z,95146.47
2023-04-24T12:27:50.100Z,95142.78
2023-04-24T12:30:19.738Z,95141.66
2023-04-24T12:32:51.422Z,95143.81
2023-04-24T12:35:23.214Z,95142.66
2023-04-24T12:37:52.418Z,95133.88
2023-04-24T12:40:24.170Z,95139.84
2023-04-24T12:42:54.687Z,95137.34
2023-04-24T12:45:26.590Z,95145.06
2023-04-24T12:47:56.662Z,95153.75
2023-04-24T12:50:25.508Z,95145.22
2023-04-24T12:52:54.504Z,95141.97
2023-04-24T12:55:23.209Z,95139.78
2023-04-24T12:57:52.248Z,95140.66
2023-04-24T13:00:21.361Z,95132.63
2023-04-24T13:02:50.160Z,95129.28
2023-04-24T13:05:24.789Z,95122.03
2023-04-24T13:07:54.085Z,95128.09
2023-04-24T13:10:23.646Z,95122.00
2023-04-24T13:12:52.518Z,95124.94
2023-04-24T13:15:21.520Z,95120.00
2023-04-24T13:17:50.613Z,95120.22
2023-04-24T13:20:21.345Z,95118.97
2023-04-24T13:22:50.090Z,95122.91
2023-04-24T13:25:19.724Z,95122.94
2023-04-24T13:27:48.638Z,95120.44
2023-04-24T13:30:17.671Z,95122.91
2023-04-24T13:32:46.473Z,95121.84
2023-04-24T13:35:15.555Z,95122.03
2023-04-24T13:37:48.718Z,95119.00
2023-04-24T13:40:17.187Z,95133.78
2023-04-24T13:42:46.056Z,95139.88
2023-04-24T13:45:24.736Z,95144.19
2023-04-24T13:47:55.349Z,95137.13
2023-04-24T13:50:24.968Z,95144.53
2023-04-24T13:52:55.497Z,95132.94
2023-04-24T13:55:27.608Z,95133.47
2023-04-24T13:57:57.175Z,95124.75
2023-04-24T14:00:26.193Z,95142.66
2023-04-24T14:02:55.024Z,95129.75
2023-04-24T14:05:24.646Z,95136.53
2023-04-24T14:07:55.435Z,95130.75
2023-04-24T14:10:24.276Z,95128.81
2023-04-24T14:12:56.579Z,95132.34
2023-04-24T14:15:26.111Z,95140.69
2023-04-24T14:17:55.181Z,95138.94
2023-04-24T14:20:23.828Z,95143.91
2023-04-24T14:22:52.451Z,95142.00
2023-04-24T14:25:23.800Z,95148.75
2023-04-24T14:27:52.595Z,95141.66
2023-04-24T14:30:23.931Z,95152.44
2023-04-24T14:32:54.892Z,95146.97
2023-04-24T14:35:24.579Z,95148.78
2023-04-24T14:37:53.732Z,95147.59
2023-04-24T14:40:48.263Z,95150.50
2023-04-24T14:43:12.996Z,95156.63
2023-04-24T14:45:42.535Z,95156.25
2023-04-24T14:48:12.528Z,95151.91
2023-04-24T14:50:41.184Z,95151.25
2023-04-24T14:53:10.076Z,95152.19
2023-04-24T14:55:40.132Z,95154.97
2023-04-24T14:58:08.987Z,95156.22
2023-04-24T15:00:37.712Z,95161.16
2023-04-24T15:03:06.805Z,95153.16
2023-04-24T15:05:36.075Z,95156.38
2023-04-24T15:08:05.280Z,95155.06
2023-04-24T15:10:34.377Z,95167.56
2023-04-24T15:13:04.994Z,95169.31
2023-04-24T15:15:34.025Z,95165.75
2023-04-24T15:18:03.075Z,95170.06
2023-04-24T15:20:31.968Z,95175.38
2023-04-24T15:23:01.550Z,95174.66
2023-04-24T15:25:30.712Z,95175.25
2023-04-24T15:28:00.304Z,95171.03
2023-04-24T15:30:31.744Z,95175.56
2023-04-24T15:33:02.175Z,95179.34
2023-04-24T15:35:31.788Z,95179.97
2023-04-24T15:38:01.481Z,95173.19
2023-04-24T15:40:30.369Z,95180.53
2023-04-24T15:42:59.398Z,95175.72
2023-04-24T15:45:28.385Z,95179.41
2023-04-24T15:47:59.100Z,95174.47
2023-04-24T15:50:29.492Z,95174.50
2023-04-24T15:52:58.267Z,95179.34
2023-04-24T15:55:27.279Z,95178.59
2023-04-24T15:57:56.202Z,95177.63
2023-04-24T16:00:25.106Z,95183.63
2023-04-24T16:02:54.213Z,95188.09
2023-04-24T16:05:24.856Z,95185.53
2023-04-24T16:07:53.969Z,95187.66
2023-04-24T16:10:22.694Z,95196.47
2023-04-24T16:12:51.942Z,95183.91
2023-04-24T16:15:20.864Z,95193.19
2023-04-24T16:17:51.071Z,95201.22
2023-04-24T16:20:20.175Z,95219.75
2023-04-24T16:22:50.610Z,95221.91
2023-04-24T16:25:19.147Z,95218.13
2023-04-24T16:27:49.216Z,95226.84
2023-04-24T16:30:18.592Z,95215.28
2023-04-24T16:32:47.371Z,95217.69
2023-04-24T16:35:16.835Z,95218.66
2023-04-24T16:37:45.542Z,95214.56
2023-04-24T16:40:16.367Z,95213.03
2023-04-24T16:42:45.113Z,95216.28
2023-04-24T16:45:14.165Z,95213.84
2023-04-24T16:47:45.501Z,95216.13
2023-04-24T16:50:14.219Z,95213.34
2023-04-24T16:52:43.764Z,95217.13
2023-04-24T16:55:12.546Z,95220.00
2023-04-24T16:57:43.040Z,95226.13
2023-04-24T17:00:12.696Z,95236.97
2023-04-24T17:02:41.451Z,95229.13
2023-04-24T17:05:11.168Z,95239.28
2023-04-24T17:07:40.186Z,95240.41
2023-04-24T17:10:10.368Z,95223.84
2023-04-24T17:12:39.417Z,95250.66
2023-04-24T17:15:10.295Z,95251.28
2023-04-24T17:17:39.649Z,95245.97
2023-04-24T17:20:21.474Z,95252.84
2023-04-24T17:22:52.503Z,95261.22
2023-04-24T17:25:21.865Z,95252.31
2023-04-24T17:27:50.503Z,95250.38
2023-04-24T17:30:21.239Z,95252.69
2023-04-24T17:32:50.080Z,95259.03
2023-04-24T17:35:20.348Z,95269.56
2023-04-24T17:37:50.842Z,95267.28
2023-04-24T17:40:19.740Z,95271.31
2023-04-24T17:42:48.698Z,95283.47
2023-04-24T17:45:17.695Z,95281.19
2023-04-24T17:47:48.254Z,95275.66
2023-04-24T17:50:17.077Z,95270.84
2023-04-24T17:52:47.864Z,95280.41
2023-04-24T17:55:17.266Z,95277.84
2023-04-24T17:57:45.904Z,95283.66
2023-04-24T18:00:15.715Z,95288.09
2023-04-24T18:02:44.852Z,95284.34
2023-04-24T18:05:15.102Z,95283.16
2023-04-24T18:07:43.909Z,95284.91
2023-04-24T18:10:13.042Z,95276.44
2023-04-24T18:12:42.494Z,95290.84
2023-04-24T18:15:14.648Z,95300.81
2023-04-24T18:17:44.200Z,95302.41
2023-04-24T18:20:15.076Z,95310.53
2023-04-24T18:22:44.585Z,95312.81
2023-04-24T18:25:14.356Z,95315.38
2023-04-24T18:27:46.385Z,95321.16
2023-04-24T18:30:15.371Z,95316.19
2023-04-24T18:32:44.506Z,95315.63
2023-04-24T18:35:16.617Z,95324.94
2023-04-24T18:37:45.562Z,95337.75
2023-04-24T18:40:14.956Z,95325.22
2023-04-24T18:42:43.784Z,95301.63
2023-04-24T18:45:15.072Z,95326.69
2023-04-24T18:47:44.419Z,95332.78
2023-04-24T18:50:15.053Z,95337.34
2023-04-24T18:52:46.056Z,95341.78
2023-04-24T18:55:15.161Z,95338.84
2023-04-24T18:57:43.953Z,95343.53
2023-04-24T19:00:13.878Z,95346.91
2023-04-24T19:02:42.675Z,95349.72
2023-04-24T19:05:12.339Z,95354.44
2023-04-24T19:07:42.467Z,95362.41
2023-04-24T19:10:12.402Z,95356.59
2023-04-24T19:12:41.236Z,95362.78
2023-04-24T19:15:12.298Z,95365.31
2023-04-24T19:17:41.282Z,95359.41
2023-04-24T19:20:10.729Z,95359.94
2023-04-24T19:22:39.303Z,95365.31
2023-04-24T19:25:10.255Z,95366.00
2023-04-24T19:27:39.260Z,95367.88
2023-04-24T19:30:09.900Z,95373.13
2023-04-24T19:32:39.484Z,95373.50
2023-04-24T19:35:09.156Z,95369.22
2023-04-24T19:37:40.995Z,95365.69
2023-04-24T19:40:13.188Z,95378.88
2023-04-24T19:42:44.728Z,95375.66
2023-04-24T19:45:14.121Z,95377.38
2023-04-24T19:47:43.495Z,95377.25
2023-04-24T19:50:12.817Z,95377.63
2023-04-24T19:52:41.988Z,95373.56
2023-04-24T19:55:13.593Z,95377.50
2023-04-24T19:57:42.791Z,95384.06
2023-04-24T20:00:12.699Z,95381.50
2023-04-24T20:02:41.812Z,95368.28
2023-04-24T20:05:10.818Z,95369.06
2023-04-24T20:07:43.389Z,95370.84
2023-04-24T20:10:13.992Z,95371.09
2023-04-24T20:12:43.116Z,95373.91
2023-04-24T20:15:12.712Z,95378.09
2023-04-24T20:17:41.572Z,95376.25
2023-04-24T20:20:11.669Z,95373.34
2023-04-24T20:22:40.629Z,95372.75
2023-04-24T20:25:10.503Z,95369.78
2023-04-24T20:27:41.481Z,95373.97
2023-04-24T20:30:13.438Z,95378.25
2023-04-24T20:32:43.359Z,95376.09
2023-04-24T20:35:12.536Z,95381.72
2023-04-24T20:37:41.585Z,95377.16
2023-04-24T20:40:11.330Z,95378.75
2023-04-24T20:42:41.897Z,95375.28
2023-04-24T20:45:11.514Z,95370.03
2023-04-24T20:47:40.862Z,95377.28
2023-04-24T20:50:10.355Z,95374.72
2023-04-24T20:52:39.152Z,95389.19
2023-04-24T20:55:09.092Z,95383.41
2023-04-24T20:57:38.642Z,95380.59
2023-04-24T21:00:11.418Z,95379.66
2023-04-24T21:02:40.587Z,95371.03
2023-04-24T21:05:10.624Z,95386.34
2023-04-24T21:07:39.925Z,95383.09
2023-04-24T21:10:10.035Z,95377.88
2023-04-24T21:12:38.894Z,95380.28
2023-04-24T21:15:10.452Z,95373.06
2023-04-24T21:17:39.797Z,95387.69
2023-04-24T21:20:10.139Z,95372.63
2023-04-24T21:22:38.598Z,95369.25
2023-04-24T21:25:08.764Z,95374.38
2023-04-24T21:27:38.118Z,95380.41
2023-04-24T21:30:09.398Z,95382.97
2023-04-24T21:32:39.501Z,95378.81
2023-04-24T21:35:09.097Z,95371.94
2023-04-24T21:37:41.826Z,95384.97
2023-04-24T21:40:12.561Z,95385.09
2023-04-24T21:42:41.708Z,95382.41
2023-04-24T21:45:13.470Z,95386.22
2023-04-24T21:47:42.296Z,95388.09
2023-04-24T21:50:11.945Z,95383.38
2023-04-24T21:52:41.169Z,95385.78
2023-04-24T21:55:10.624Z,95385.34
2023-04-24T21:57:39.631Z,95386.53
2023-04-24T22:00:11.538Z,95382.38
2023-04-24T22:02:43.406Z,95390.25
2023-04-24T22:05:16.940Z,95384.28
2023-04-24T22:07:49.137Z,95391.81
2023-04-24T22:10:20.877Z,95401.13
2023-04-24T22:12:49.850Z,95396.78
2023-04-24T22:15:18.742Z,95396.56
2023-04-24T22:17:50.001Z,95399.13
2023-04-24T22:20:19.244Z,95394.03
2023-04-24T22:22:50.249Z,95397.75
2023-04-24T22:25:19.757Z,95403.78
2023-04-24T22:27:49.104Z,95402.84
2023-04-24T22:30:18.279Z,95404.47
2023-04-24T22:32:48.342Z,95406.09
2023-04-24T22:35:16.716Z,95400.56
2023-04-24T22:37:45.770Z,95407.50
2023-04-24T22:40:14.544Z,95402.28
2023-04-24T22:42:43.755Z,95406.56
2023-04-24T22:45:13.680Z,95399.47
2023-04-24T22:47:43.261Z,95401.13
2023-04-24T22:50:14.485Z,95414.00
2023-04-24T22:52:44.208Z,95397.63
2023-04-24T22:55:14.668Z,95403.41
2023-04-24T22:57:43.460Z,95403.66
2023-04-24T23:00:13.832Z,95409.81
2023-04-24T23:02:43.963Z,95410.75
2023-04-24T23:05:14.071Z,95403.34
2023-04-24T23:07:43.566Z,95406.34
2023-04-24T23:10:12.461Z,95403.91
2023-04-24T23:12:41.340Z,95409.13
2023-04-24T23:15:11.655Z,95405.66
2023-04-24T23:17:41.447Z,95406.69
2023-04-24T23:20:14.943Z,95416.22
2023-04-24T23:22:43.814Z,95409.19
2023-04-24T23:25:12.672Z,95405.94
2023-04-24T23:27:44.211Z,95400.84
2023-04-24T23:30:15.951Z,95405.94
2023-04-24T23:32:45.887Z,95396.81
2023-04-24T23:35:16.089Z,95404.34
2023-04-24T23:37:44.866Z,95401.09
2023-04-24T23:40:13.900Z,95397.53
2023-04-24T23:42:42.509Z,95398.44
2023-04-24T23:45:14.492Z,95403.94
2023-04-24T23:47:43.510Z,95397.22
2023-04-24T23:50:16.483Z,95402.44
2023-04-24T23:52:45.239Z,95398.50
2023-04-24T23:55:14.192Z,95398.63
2023-04-24T23:57:42.748Z,95397.38
